createdAt,value
2019-03-30T00:00:17.753Z,96.50
2019-03-30T00:01:32.634Z,96.60
2019-03-30T00:02:45.858Z,96.60
2019-03-30T00:03:59.089Z,97.10
2019-03-30T00:05:12.339Z,97.20
2019-03-30T00:06:25.574Z,97.50
2019-03-30T00:07:38.818Z,97.40
2019-03-30T00:08:52.145Z,97.70
2019-03-30T00:10:05.749Z,97.30
2019-03-30T00:11:19.005Z,97.20
2019-03-30T00:12:32.310Z,97.30
2019-03-30T00:13:45.541Z,97.40
2019-03-30T00:14:58.765Z,97.60
2019-03-30T00:16:12.020Z,98.20
2019-03-30T00:17:25.266Z,98.20
2019-03-30T00:18:41.234Z,98.40
2019-03-30T00:19:53.481Z,98.40
2019-03-30T00:21:06.715Z,98.60
2019-03-30T00:22:19.957Z,98.40
2019-03-30T00:23:33.206Z,98.70
2019-03-30T00:24:46.439Z,98.40
2019-03-30T00:26:01.081Z,98.40
2019-03-30T00:27:14.346Z,98.20
2019-03-30T00:28:27.588Z,98.20
2019-03-30T00:29:40.838Z,97.90
2019-03-30T00:30:54.086Z,98.00
2019-03-30T00:32:07.321Z,98.10
2019-03-30T00:33:22.183Z,98.00
2019-03-30T00:34:35.417Z,97.90
2019-03-30T00:35:48.930Z,98.00
2019-03-30T00:37:03.084Z,98.10
2019-03-30T00:38:16.309Z,97.80
2019-03-30T00:39:29.561Z,98.00
2019-03-30T00:40:42.857Z,97.70
2019-03-30T00:41:56.108Z,97.40
2019-03-30T00:43:09.349Z,97.90
2019-03-30T00:44:23.544Z,97.90
2019-03-30T00:45:36.773Z,98.00
2019-03-30T00:46:50.255Z,98.30
2019-03-30T00:48:03.489Z,98.60
2019-03-30T00:49:16.746Z,98.70
2019-03-30T00:50:29.971Z,98.60
2019-03-30T00:51:43.209Z,98.60
2019-03-30T00:52:56.457Z,98.50
2019-03-30T00:54:10.599Z,98.40
2019-03-30T00:55:23.920Z,98.10
2019-03-30T00:56:37.134Z,98.60
2019-03-30T00:57:50.390Z,98.50
2019-03-30T00:59:03.637Z,98.60
2019-03-30T01:00:16.930Z,98.50
2019-03-30T01:01:30.173Z,98.40
2019-03-30T01:02:43.393Z,99.00
2019-03-30T01:03:56.633Z,99.20
2019-03-30T01:05:09.873Z,99.00
2019-03-30T01:06:23.118Z,99.30
2019-03-30T01:07:37.615Z,99.30
2019-03-30T01:08:50.840Z,98.90
2019-03-30T01:10:05.630Z,99.20
2019-03-30T01:11:18.860Z,99.10
2019-03-30T01:12:32.098Z,98.50
2019-03-30T01:13:45.395Z,98.70
2019-03-30T01:14:58.629Z,98.70
2019-03-30T01:16:12.614Z,98.60
2019-03-30T01:17:25.886Z,98.60
2019-03-30T01:18:40.273Z,99.20
2019-03-30T01:20:02.838Z,99.20
2019-03-30T01:21:08.593Z,99.20
2019-03-30T01:22:22.302Z,99.10
2019-03-30T01:23:35.533Z,99.30
2019-03-30T01:24:49.483Z,99.60
2019-03-30T01:26:02.716Z,99.20
2019-03-30T01:27:15.941Z,99.10
2019-03-30T01:28:29.180Z,98.60
2019-03-30T01:29:42.676Z,98.60
2019-03-30T01:30:56.149Z,98.40
2019-03-30T01:32:09.377Z,98.40
2019-03-30T01:33:22.616Z,98.30
2019-03-30T01:34:35.855Z,98.30
2019-03-30T01:35:49.090Z,98.40
2019-03-30T01:37:02.337Z,98.60
2019-03-30T01:38:15.561Z,98.30
2019-03-30T01:39:28.802Z,98.60
2019-03-30T01:40:42.046Z,98.60
2019-03-30T01:41:55.278Z,98.40
2019-03-30T01:43:08.519Z,98.50
2019-03-30T01:44:21.755Z,99.10
2019-03-30T01:45:34.985Z,99.00
2019-03-30T01:46:48.243Z,99.00
2019-03-30T01:48:01.481Z,99.10
2019-03-30T01:49:14.702Z,99.20
2019-03-30T01:50:27.933Z,99.60
2019-03-30T01:51:41.164Z,99.80
2019-03-30T01:52:54.402Z,99.60
2019-03-30T01:54:07.621Z,99.90
2019-03-30T01:55:20.861Z,99.90
2019-03-30T01:56:34.106Z,99.90
2019-03-30T01:57:47.803Z,99.90
2019-03-30T01:59:01.041Z,99.90
2019-03-30T02:00:14.360Z,99.90
2019-03-30T02:01:27.601Z,99.90
2019-03-30T02:02:40.987Z,99.90
2019-03-30T02:03:54.224Z,99.90
2019-03-30T02:05:07.460Z,99.90
2019-03-30T02:06:20.681Z,99.90
2019-03-30T02:07:33.918Z,99.90
2019-03-30T02:08:48.790Z,99.90
2019-03-30T02:10:02.040Z,99.90
2019-03-30T02:11:15.272Z,99.90
2019-03-30T02:12:28.497Z,99.90
2019-03-30T02:13:41.976Z,99.90
2019-03-30T02:14:55.213Z,99.90
2019-03-30T02:16:08.702Z,99.90
2019-03-30T02:17:22.418Z,99.80
2019-03-30T02:18:35.626Z,99.90
2019-03-30T02:19:48.850Z,99.60
2019-03-30T02:21:02.090Z,99.90
2019-03-30T02:22:15.327Z,99.90
2019-03-30T02:23:28.550Z,99.80
2019-03-30T02:24:41.786Z,99.90
2019-03-30T02:25:55.018Z,99.90
2019-03-30T02:27:08.249Z,99.90
2019-03-30T02:28:21.469Z,99.90
2019-03-30T02:29:34.768Z,99.80
2019-03-30T02:30:48.006Z,99.80
2019-03-30T02:32:01.490Z,99.90
2019-03-30T02:33:14.734Z,99.90
2019-03-30T02:34:27.959Z,99.90
2019-03-30T02:35:41.247Z,99.90
2019-03-30T02:36:54.496Z,99.90
2019-03-30T02:38:07.746Z,99.80
2019-03-30T02:39:22.665Z,99.90
2019-03-30T02:40:35.905Z,99.90
2019-03-30T02:41:49.161Z,99.90
2019-03-30T02:43:02.907Z,99.90
2019-03-30T02:44:16.147Z,99.90
2019-03-30T02:45:29.370Z,99.90
2019-03-30T02:46:42.598Z,99.90
2019-03-30T02:47:57.454Z,99.90
2019-03-30T02:49:10.691Z,99.90
2019-03-30T02:50:23.922Z,99.90
2019-03-30T02:51:37.161Z,99.90
2019-03-30T02:52:50.424Z,99.90
2019-03-30T02:54:03.831Z,99.90
2019-03-30T02:55:17.149Z,99.90
2019-03-30T02:56:30.651Z,99.60
2019-03-30T02:57:43.890Z,99.90
2019-03-30T02:58:57.119Z,99.90
2019-03-30T03:00:12.010Z,99.90
2019-03-30T03:01:25.251Z,99.90
2019-03-30T03:02:38.478Z,99.90
2019-03-30T03:03:52.280Z,99.90
2019-03-30T03:05:06.178Z,99.90
2019-03-30T03:06:19.435Z,99.90
2019-03-30T03:07:32.674Z,99.90
2019-03-30T03:08:45.890Z,99.90
2019-03-30T03:09:59.591Z,99.90
2019-03-30T03:11:13.742Z,99.90
2019-03-30T03:12:26.962Z,99.90
2019-03-30T03:13:40.189Z,99.90
2019-03-30T03:14:53.428Z,99.90
2019-03-30T03:16:06.697Z,99.90
2019-03-30T03:17:19.979Z,99.90
2019-03-30T03:18:34.364Z,99.90
2019-03-30T03:19:47.596Z,99.90
2019-03-30T03:21:08.042Z,99.90
2019-03-30T03:22:15.782Z,99.90
2019-03-30T03:23:29.010Z,99.90
2019-03-30T03:24:42.234Z,99.90
2019-03-30T03:25:55.457Z,99.90
2019-03-30T03:27:12.653Z,99.90
2019-03-30T03:28:25.894Z,99.90
2019-03-30T03:29:43.265Z,99.90
2019-03-30T03:30:54.128Z,99.90
2019-03-30T03:32:07.381Z,99.90
2019-03-30T03:33:20.694Z,99.90
2019-03-30T03:34:33.918Z,99.90
2019-03-30T03:35:47.151Z,99.90
2019-03-30T03:37:00.388Z,99.90
2019-03-30T03:38:13.620Z,99.90
2019-03-30T03:39:26.846Z,99.90
2019-03-30T03:40:40.079Z,99.90
2019-03-30T03:41:53.321Z,99.90
2019-03-30T03:43:06.549Z,99.90
2019-03-30T03:44:19.795Z,99.90
2019-03-30T03:45:33.028Z,99.90
2019-03-30T03:46:46.267Z,99.90
2019-03-30T03:47:59.501Z,99.90
2019-03-30T03:49:12.723Z,99.90
2019-03-30T03:50:41.968Z,99.90
2019-03-30T03:51:55.206Z,99.90
2019-03-30T03:53:08.461Z,99.90
2019-03-30T03:54:21.810Z,99.90
2019-03-30T03:55:35.017Z,99.90
2019-03-30T03:56:48.735Z,99.90
2019-03-30T03:58:01.983Z,99.90
2019-03-30T03:59:15.209Z,99.90
2019-03-30T04:00:28.445Z,99.90
2019-03-30T04:01:41.663Z,99.90
2019-03-30T04:02:54.923Z,99.90
2019-03-30T04:04:08.521Z,99.90
2019-03-30T04:05:21.836Z,99.90
2019-03-30T04:06:35.068Z,99.90
2019-03-30T04:07:48.306Z,99.90
2019-03-30T04:09:04.294Z,99.90
2019-03-30T04:10:17.522Z,99.90
2019-03-30T04:11:31.534Z,99.90
2019-03-30T04:12:44.766Z,99.90
2019-03-30T04:13:58.007Z,99.90
2019-03-30T04:15:14.519Z,99.90
2019-03-30T04:16:27.738Z,99.90
2019-03-30T04:17:40.989Z,99.90
2019-03-30T04:18:54.234Z,99.90
2019-03-30T04:20:07.470Z,99.90
2019-03-30T04:21:20.786Z,99.90
2019-03-30T04:22:34.112Z,99.90
2019-03-30T04:23:48.760Z,99.90
2019-03-30T04:25:02.008Z,99.90
2019-03-30T04:26:15.232Z,99.90
2019-03-30T04:27:28.485Z,99.90
2019-03-30T04:28:41.781Z,99.90
2019-03-30T04:29:56.496Z,99.90
2019-03-30T04:31:09.729Z,99.90
2019-03-30T04:32:22.966Z,99.90
2019-03-30T04:33:36.500Z,99.90
2019-03-30T04:34:50.029Z,99.90
2019-03-30T04:36:03.319Z,99.90
2019-03-30T04:37:16.555Z,99.90
2019-03-30T04:38:29.785Z,99.90
2019-03-30T04:39:43.029Z,99.90
2019-03-30T04:40:56.266Z,99.90
2019-03-30T04:42:09.494Z,99.90
2019-03-30T04:43:22.720Z,99.90
2019-03-30T04:44:36.983Z,99.90
2019-03-30T04:45:50.229Z,99.90
2019-03-30T04:47:03.464Z,99.90
2019-03-30T04:48:16.686Z,99.90
2019-03-30T04:49:30.903Z,99.90
2019-03-30T04:50:44.125Z,99.90
2019-03-30T04:51:58.437Z,99.90
2019-03-30T04:53:11.651Z,99.90
2019-03-30T04:54:24.883Z,99.90
2019-03-30T04:55:38.426Z,99.90
2019-03-30T04:56:51.706Z,99.90
2019-03-30T04:58:04.966Z,99.90
2019-03-30T04:59:18.273Z,99.90
2019-03-30T05:00:32.782Z,99.90
2019-03-30T05:01:46.354Z,99.90
2019-03-30T05:02:59.591Z,99.90
2019-03-30T05:04:12.842Z,99.90
2019-03-30T05:05:26.069Z,99.90
2019-03-30T05:06:41.699Z,99.90
2019-03-30T05:07:55.013Z,99.90
2019-03-30T05:09:08.237Z,99.90
2019-03-30T05:10:23.038Z,99.90
2019-03-30T05:11:36.378Z,99.90
2019-03-30T05:12:51.507Z,99.90
2019-03-30T05:14:04.741Z,99.90
2019-03-30T05:15:17.964Z,99.90
2019-03-30T05:16:31.218Z,99.90
2019-03-30T05:17:47.845Z,99.90
2019-03-30T05:19:01.064Z,99.90
2019-03-30T05:20:14.300Z,99.90
2019-03-30T05:21:27.539Z,99.90
2019-03-30T05:22:40.785Z,99.90
2019-03-30T05:23:54.022Z,99.90
2019-03-30T05:25:07.266Z,99.90
2019-03-30T05:26:20.497Z,99.90
2019-03-30T05:27:33.741Z,99.90
2019-03-30T05:28:46.999Z,99.90
2019-03-30T05:30:00.406Z,99.90
2019-03-30T05:31:13.639Z,99.90
2019-03-30T05:32:26.886Z,99.90
2019-03-30T05:33:40.130Z,99.90
2019-03-30T05:34:53.368Z,99.90
2019-03-30T05:36:06.615Z,99.90
2019-03-30T05:37:19.858Z,99.90
2019-03-30T05:38:33.097Z,99.90
2019-03-30T05:39:46.336Z,99.90
2019-03-30T05:40:59.583Z,99.90
2019-03-30T05:42:12.826Z,99.90
2019-03-30T05:43:27.701Z,99.90
2019-03-30T05:44:40.944Z,99.90
2019-03-30T05:45:55.464Z,99.90
2019-03-30T05:47:08.709Z,99.90
2019-03-30T05:48:21.946Z,99.90
2019-03-30T05:49:35.179Z,99.90
2019-03-30T05:50:48.411Z,99.90
2019-03-30T05:52:01.634Z,99.90
2019-03-30T05:53:14.879Z,99.90
2019-03-30T05:54:28.109Z,99.90
2019-03-30T05:55:42.522Z,99.90
2019-03-30T05:56:56.230Z,99.90
2019-03-30T05:58:10.529Z,99.90
2019-03-30T05:59:23.771Z,99.90
2019-03-30T06:00:37.005Z,99.90
2019-03-30T06:01:50.233Z,99.90
2019-03-30T06:03:09.827Z,99.90
2019-03-30T06:04:23.073Z,99.90
2019-03-30T06:05:36.305Z,99.90
2019-03-30T06:06:49.540Z,99.90
2019-03-30T06:08:02.779Z,99.90
2019-03-30T06:09:16.481Z,99.90
2019-03-30T06:10:29.734Z,99.90
2019-03-30T06:11:42.961Z,99.90
2019-03-30T06:12:56.185Z,99.90
2019-03-30T06:14:09.435Z,99.90
2019-03-30T06:15:23.408Z,99.90
2019-03-30T06:16:36.646Z,99.90
2019-03-30T06:17:51.521Z,99.90
2019-03-30T06:19:06.251Z,99.90
2019-03-30T06:20:20.727Z,99.90
2019-03-30T06:21:33.978Z,99.90
2019-03-30T06:22:48.845Z,99.90
2019-03-30T06:24:03.876Z,99.90
2019-03-30T06:25:17.100Z,99.90
2019-03-30T06:26:31.329Z,99.90
2019-03-30T06:27:44.573Z,99.90
2019-03-30T06:28:57.789Z,99.90
2019-03-30T06:30:24.005Z,99.90
2019-03-30T06:31:39.206Z,99.60
2019-03-30T06:32:53.829Z,99.80
2019-03-30T06:34:07.058Z,99.90
2019-03-30T06:35:20.292Z,99.90
2019-03-30T06:36:33.527Z,99.60
2019-03-30T06:37:46.767Z,98.60
2019-03-30T06:39:00.328Z,98.50
2019-03-30T06:40:14.139Z,98.50
2019-03-30T06:41:27.371Z,98.70
2019-03-30T06:42:40.602Z,98.40
2019-03-30T06:43:54.426Z,98.70
2019-03-30T06:45:07.650Z,98.40
2019-03-30T06:46:23.490Z,97.90
2019-03-30T06:47:36.721Z,97.70
2019-03-30T06:48:54.488Z,97.70
2019-03-30T06:50:08.102Z,97.90
2019-03-30T06:51:21.343Z,97.50
2019-03-30T06:52:35.470Z,97.00
2019-03-30T06:53:48.942Z,96.40
2019-03-30T06:55:04.757Z,96.60
2019-03-30T06:56:18.743Z,96.20
2019-03-30T06:57:33.432Z,96.30
2019-03-30T06:58:46.646Z,96.30
2019-03-30T06:59:59.874Z,96.10
2019-03-30T07:01:13.698Z,95.00
2019-03-30T07:02:26.975Z,94.70
2019-03-30T07:03:40.749Z,94.70
2019-03-30T07:04:53.978Z,94.10
2019-03-30T07:06:08.861Z,94.50
2019-03-30T07:07:23.149Z,94.30
2019-03-30T07:08:36.381Z,93.70
2019-03-30T07:09:51.709Z,93.00
2019-03-30T07:11:04.946Z,93.40
2019-03-30T07:12:18.841Z,93.20
2019-03-30T07:13:34.470Z,92.70
2019-03-30T07:14:47.915Z,92.30
2019-03-30T07:16:01.166Z,92.30
2019-03-30T07:17:14.383Z,91.50
2019-03-30T07:18:27.647Z,91.20
2019-03-30T07:19:40.907Z,91.10
2019-03-30T07:20:54.178Z,90.50
2019-03-30T07:22:07.417Z,90.80
2019-03-30T07:23:20.695Z,90.40
2019-03-30T07:24:33.941Z,90.30
2019-03-30T07:25:48.800Z,90.60
2019-03-30T07:27:02.042Z,90.50
2019-03-30T07:28:15.276Z,90.50
2019-03-30T07:29:28.741Z,90.10
2019-03-30T07:30:42.231Z,90.10
2019-03-30T07:31:55.467Z,90.00
2019-03-30T07:33:10.344Z,89.50
2019-03-30T07:34:23.574Z,89.10
2019-03-30T07:35:36.829Z,89.10
2019-03-30T07:36:52.589Z,89.20
2019-03-30T07:38:05.825Z,88.50
2019-03-30T07:39:19.061Z,88.10
2019-03-30T07:40:33.938Z,87.70
2019-03-30T07:41:47.272Z,87.80
2019-03-30T07:43:00.491Z,88.00
2019-03-30T07:44:13.726Z,87.60
2019-03-30T07:45:26.978Z,87.30
2019-03-30T07:46:41.842Z,88.10
2019-03-30T07:47:55.082Z,88.20
2019-03-30T07:49:08.327Z,87.80
2019-03-30T07:50:21.544Z,85.80
2019-03-30T07:51:34.794Z,86.50
2019-03-30T07:52:48.032Z,87.40
2019-03-30T07:54:01.262Z,85.90
2019-03-30T07:55:15.062Z,84.80
2019-03-30T07:56:28.303Z,86.10
2019-03-30T07:57:41.598Z,84.40
2019-03-30T07:58:55.111Z,85.20
2019-03-30T08:00:08.413Z,85.20
2019-03-30T08:01:21.646Z,84.40
2019-03-30T08:02:34.873Z,84.80
2019-03-30T08:03:48.123Z,84.90
2019-03-30T08:05:01.346Z,85.10
2019-03-30T08:06:15.724Z,85.40
2019-03-30T08:07:29.006Z,83.70
2019-03-30T08:08:42.282Z,83.20
2019-03-30T08:09:55.529Z,84.20
2019-03-30T08:11:08.782Z,83.90
2019-03-30T08:12:22.022Z,82.10
2019-03-30T08:13:35.255Z,81.80
2019-03-30T08:14:48.565Z,81.60
2019-03-30T08:16:01.814Z,81.00
2019-03-30T08:17:15.055Z,81.20
2019-03-30T08:18:28.318Z,82.90
2019-03-30T08:19:41.803Z,82.70
2019-03-30T08:20:55.034Z,80.40
2019-03-30T08:22:08.741Z,81.20
2019-03-30T08:23:21.971Z,80.30
2019-03-30T08:24:35.201Z,80.90
2019-03-30T08:25:48.899Z,80.90
2019-03-30T08:27:02.153Z,80.00
2019-03-30T08:28:16.447Z,79.30
2019-03-30T08:29:30.847Z,80.00
2019-03-30T08:30:44.086Z,80.40
2019-03-30T08:31:57.317Z,79.70
2019-03-30T08:33:11.304Z,79.50
2019-03-30T08:34:24.541Z,79.40
2019-03-30T08:35:37.777Z,80.10
2019-03-30T08:36:51.485Z,80.50
2019-03-30T08:38:04.728Z,80.50
2019-03-30T08:39:18.423Z,80.90
2019-03-30T08:40:31.667Z,77.60
2019-03-30T08:41:44.891Z,76.10
2019-03-30T08:42:58.390Z,78.10
2019-03-30T08:44:11.643Z,77.80
2019-03-30T08:45:24.904Z,75.70
2019-03-30T08:46:45.046Z,77.60
2019-03-30T08:47:58.325Z,78.00
2019-03-30T08:49:11.808Z,78.00
2019-03-30T08:50:25.073Z,74.90
2019-03-30T08:51:38.302Z,75.00
2019-03-30T08:52:52.468Z,74.20
2019-03-30T08:54:05.727Z,75.60
2019-03-30T08:55:22.402Z,75.70
2019-03-30T08:56:35.654Z,76.00
2019-03-30T08:57:50.167Z,74.30
2019-03-30T08:59:03.400Z,73.80
2019-03-30T09:00:25.513Z,74.40
2019-03-30T09:01:40.496Z,71.90
2019-03-30T09:02:53.688Z,71.70
2019-03-30T09:04:06.962Z,72.30
2019-03-30T09:05:20.198Z,73.20
2019-03-30T09:06:33.533Z,72.30
2019-03-30T09:07:46.781Z,71.30
2019-03-30T09:09:00.022Z,70.00
2019-03-30T09:10:13.257Z,69.10
2019-03-30T09:11:26.485Z,67.70
2019-03-30T09:12:39.997Z,69.10
2019-03-30T09:13:53.322Z,68.80
2019-03-30T09:15:07.206Z,68.10
2019-03-30T09:16:20.596Z,68.10
2019-03-30T09:17:37.117Z,69.70
2019-03-30T09:18:48.824Z,69.60
2019-03-30T09:20:02.065Z,70.70
2019-03-30T09:21:15.312Z,70.40
2019-03-30T09:22:28.549Z,66.30
2019-03-30T09:23:44.535Z,66.40
2019-03-30T09:24:57.763Z,64.50
2019-03-30T09:26:11.032Z,63.50
2019-03-30T09:27:24.547Z,63.10
2019-03-30T09:28:37.782Z,64.90
2019-03-30T09:29:51.030Z,64.20
2019-03-30T09:31:05.886Z,62.80
2019-03-30T09:32:22.030Z,62.30
2019-03-30T09:33:36.191Z,58.80
2019-03-30T09:34:50.438Z,60.40
2019-03-30T09:36:04.965Z,60.30
2019-03-30T09:37:18.215Z,59.20
2019-03-30T09:38:32.836Z,58.30
2019-03-30T09:39:46.078Z,59.40
2019-03-30T09:41:00.144Z,59.00
2019-03-30T09:42:13.441Z,60.00
2019-03-30T09:43:27.243Z,58.80
2019-03-30T09:44:40.466Z,59.30
2019-03-30T09:45:54.794Z,58.10
2019-03-30T09:47:08.029Z,59.40
2019-03-30T09:48:21.373Z,59.40
2019-03-30T09:49:34.619Z,58.70
2019-03-30T09:50:47.926Z,58.00
2019-03-30T09:52:01.418Z,58.90
2019-03-30T09:53:14.893Z,59.20
2019-03-30T09:54:28.365Z,56.90
2019-03-30T09:55:42.371Z,55.30
2019-03-30T09:56:55.840Z,53.60
2019-03-30T09:58:09.071Z,54.30
2019-03-30T09:59:22.307Z,55.40
2019-03-30T10:00:35.561Z,55.10
2019-03-30T10:01:48.788Z,55.20
2019-03-30T10:03:02.047Z,56.10
2019-03-30T10:04:15.702Z,54.40
2019-03-30T10:05:28.966Z,51.90
2019-03-30T10:06:43.538Z,50.60
2019-03-30T10:07:56.821Z,54.30
2019-03-30T10:09:11.939Z,56.40
2019-03-30T10:10:25.305Z,56.50
2019-03-30T10:11:38.535Z,55.00
2019-03-30T10:12:51.770Z,53.70
2019-03-30T10:14:05.008Z,55.70
2019-03-30T10:15:18.254Z,53.30
2019-03-30T10:16:31.490Z,52.50
2019-03-30T10:17:46.003Z,51.90
2019-03-30T10:18:59.595Z,51.30
2019-03-30T10:20:13.116Z,50.50
2019-03-30T10:21:26.357Z,48.00
2019-03-30T10:22:42.221Z,48.80
2019-03-30T10:23:54.806Z,49.60
2019-03-30T10:25:08.069Z,51.50
2019-03-30T10:26:21.329Z,50.90
2019-03-30T10:27:34.563Z,50.60
2019-03-30T10:28:48.059Z,50.60
2019-03-30T10:30:01.485Z,51.10
2019-03-30T10:31:16.012Z,51.20
2019-03-30T10:32:32.486Z,50.30
2019-03-30T10:33:45.718Z,48.70
2019-03-30T10:34:58.975Z,45.80
2019-03-30T10:36:12.193Z,45.80
2019-03-30T10:37:26.069Z,46.10
2019-03-30T10:38:39.538Z,45.40
2019-03-30T10:39:52.829Z,43.70
2019-03-30T10:41:06.073Z,44.30
2019-03-30T10:42:19.332Z,44.20
2019-03-30T10:43:32.901Z,45.00
2019-03-30T10:44:47.766Z,45.60
2019-03-30T10:46:01.467Z,46.80
2019-03-30T10:47:14.719Z,43.60
2019-03-30T10:48:28.361Z,42.00
2019-03-30T10:49:41.612Z,42.10
2019-03-30T10:50:54.849Z,42.80
2019-03-30T10:52:08.091Z,40.80
2019-03-30T10:53:21.329Z,39.50
2019-03-30T10:54:34.578Z,42.70
2019-03-30T10:55:48.763Z,41.10
2019-03-30T10:57:02.421Z,38.60
2019-03-30T10:58:15.651Z,40.80
2019-03-30T10:59:28.893Z,40.70
2019-03-30T11:00:42.142Z,39.50
2019-03-30T11:01:56.031Z,40.10
2019-03-30T11:03:09.290Z,39.50
2019-03-30T11:04:22.760Z,37.50
2019-03-30T11:05:36.255Z,41.40
2019-03-30T11:06:49.487Z,42.80
2019-03-30T11:08:03.283Z,38.70
2019-03-30T11:09:16.531Z,40.00
2019-03-30T11:10:33.684Z,39.60
2019-03-30T11:11:47.149Z,39.50
2019-03-30T11:13:00.842Z,38.00
2019-03-30T11:14:14.075Z,39.20
2019-03-30T11:15:27.310Z,39.40
2019-03-30T11:16:41.126Z,42.60
2019-03-30T11:17:54.363Z,40.30
2019-03-30T11:19:07.600Z,39.60
2019-03-30T11:20:20.831Z,40.80
2019-03-30T11:21:34.074Z,39.10
2019-03-30T11:22:47.634Z,41.20
2019-03-30T11:24:00.865Z,40.90
2019-03-30T11:25:14.104Z,38.10
2019-03-30T11:26:27.338Z,39.40
2019-03-30T11:27:40.603Z,37.90
2019-03-30T11:28:54.078Z,38.90
2019-03-30T11:30:08.999Z,36.20
2019-03-30T11:31:22.234Z,36.10
2019-03-30T11:32:35.472Z,36.40
2019-03-30T11:33:48.965Z,35.30
2019-03-30T11:35:02.196Z,36.80
2019-03-30T11:36:18.485Z,36.30
2019-03-30T11:37:30.392Z,36.50
2019-03-30T11:38:43.613Z,36.30
2019-03-30T11:39:56.926Z,34.80
2019-03-30T11:41:10.162Z,36.30
2019-03-30T11:42:23.390Z,34.60
2019-03-30T11:43:36.623Z,31.30
2019-03-30T11:44:49.865Z,29.50
2019-03-30T11:46:03.110Z,28.50
2019-03-30T11:47:16.417Z,29.90
2019-03-30T11:48:29.729Z,28.40
2019-03-30T11:49:43.610Z,28.80
2019-03-30T11:50:56.869Z,27.90
2019-03-30T11:52:10.104Z,24.70
2019-03-30T11:53:23.341Z,24.50
2019-03-30T11:54:36.582Z,23.80
2019-03-30T11:55:49.819Z,23.40
2019-03-30T11:57:03.084Z,23.30
2019-03-30T11:58:16.327Z,23.90
2019-03-30T11:59:30.131Z,24.10
2019-03-30T12:00:43.369Z,22.80
2019-03-30T12:01:56.601Z,22.00
2019-03-30T12:03:09.845Z,23.50
2019-03-30T12:04:23.074Z,23.40
2019-03-30T12:05:36.318Z,23.00
2019-03-30T12:06:51.900Z,23.00
2019-03-30T12:08:05.244Z,23.40
2019-03-30T12:09:18.491Z,24.60
2019-03-30T12:10:32.440Z,24.40
2019-03-30T12:11:45.665Z,23.60
2019-03-30T12:12:58.898Z,22.60
2019-03-30T12:14:12.167Z,23.20
2019-03-30T12:15:25.395Z,22.20
2019-03-30T12:16:38.720Z,20.60
2019-03-30T12:17:51.958Z,21.40
2019-03-30T12:19:05.186Z,22.60
2019-03-30T12:20:18.445Z,23.30
2019-03-30T12:21:31.746Z,22.40
2019-03-30T12:22:46.607Z,23.90
2019-03-30T12:23:59.837Z,24.40
2019-03-30T12:25:13.086Z,21.90
2019-03-30T12:26:26.319Z,21.90
2019-03-30T12:27:39.810Z,21.20
2019-03-30T12:28:53.054Z,20.30
2019-03-30T12:30:07.915Z,21.40
2019-03-30T12:31:21.167Z,20.90
2019-03-30T12:32:34.399Z,21.80
2019-03-30T12:33:47.713Z,19.90
2019-03-30T12:35:00.946Z,21.60
2019-03-30T12:36:14.187Z,21.00
2019-03-30T12:37:27.448Z,19.80
2019-03-30T12:38:42.317Z,19.90
2019-03-30T12:39:58.241Z,20.00
2019-03-30T12:41:10.579Z,20.20
2019-03-30T12:42:23.840Z,18.50
2019-03-30T12:43:39.022Z,17.50
2019-03-30T12:44:52.052Z,17.70
2019-03-30T12:46:05.293Z,18.00
2019-03-30T12:47:18.600Z,16.90
2019-03-30T12:48:31.858Z,17.70
2019-03-30T12:49:45.475Z,17.50
2019-03-30T12:50:58.795Z,18.50
2019-03-30T12:52:12.033Z,19.10
2019-03-30T12:53:25.278Z,17.60
2019-03-30T12:54:38.543Z,17.70
2019-03-30T12:55:52.041Z,17.70
2019-03-30T12:57:05.274Z,17.80
2019-03-30T12:58:19.500Z,19.30
2019-03-30T12:59:32.763Z,18.70
2019-03-30T13:00:45.994Z,19.50
2019-03-30T13:01:59.230Z,19.00
2019-03-30T13:03:12.462Z,17.20
2019-03-30T13:04:25.698Z,18.50
2019-03-30T13:05:38.956Z,19.70
2019-03-30T13:06:52.184Z,17.40
2019-03-30T13:08:05.433Z,18.90
2019-03-30T13:09:18.737Z,18.80
2019-03-30T13:10:32.179Z,17.00
2019-03-30T13:11:45.422Z,18.40
2019-03-30T13:12:58.686Z,18.00
2019-03-30T13:14:12.090Z,17.20
2019-03-30T13:15:25.566Z,18.20
2019-03-30T13:16:39.047Z,19.60
2019-03-30T13:17:52.538Z,17.80
2019-03-30T13:19:05.841Z,19.20
2019-03-30T13:20:19.079Z,17.90
2019-03-30T13:21:32.766Z,17.70
2019-03-30T13:22:46.018Z,16.70
2019-03-30T13:23:59.618Z,16.80
2019-03-30T13:25:15.588Z,16.10
2019-03-30T13:26:28.827Z,16.20
2019-03-30T13:27:43.992Z,16.50
2019-03-30T13:28:57.605Z,16.60
2019-03-30T13:30:11.782Z,16.60
2019-03-30T13:31:25.007Z,17.00
2019-03-30T13:32:38.252Z,17.40
2019-03-30T13:33:51.486Z,19.80
2019-03-30T13:35:04.893Z,16.60
2019-03-30T13:36:19.418Z,17.30
2019-03-30T13:37:32.644Z,17.20
2019-03-30T13:38:45.903Z,17.30
2019-03-30T13:39:59.138Z,18.60
2019-03-30T13:41:14.194Z,18.80
2019-03-30T13:42:28.174Z,19.20
2019-03-30T13:43:41.412Z,18.90
2019-03-30T13:44:55.208Z,18.40
2019-03-30T13:46:08.434Z,17.60
2019-03-30T13:47:21.676Z,17.90
2019-03-30T13:48:34.906Z,17.80
2019-03-30T13:49:48.147Z,18.50
2019-03-30T13:51:01.370Z,18.60
2019-03-30T13:52:14.601Z,18.50
2019-03-30T13:53:28.319Z,17.30
2019-03-30T13:54:41.862Z,18.40
2019-03-30T13:55:55.096Z,18.00
2019-03-30T13:57:11.168Z,17.20
2019-03-30T13:58:24.402Z,17.00
2019-03-30T13:59:37.632Z,17.00
2019-03-30T14:00:50.880Z,15.10
2019-03-30T14:02:04.134Z,14.60
2019-03-30T14:03:17.373Z,15.20
2019-03-30T14:04:30.594Z,16.50
2019-03-30T14:05:45.497Z,16.90
2019-03-30T14:06:58.738Z,15.70
2019-03-30T14:08:11.992Z,14.60
2019-03-30T14:09:25.265Z,15.70
2019-03-30T14:10:39.164Z,15.40
2019-03-30T14:11:52.529Z,17.00
2019-03-30T14:13:05.779Z,15.30
2019-03-30T14:14:19.018Z,14.90
2019-03-30T14:15:32.257Z,14.60
2019-03-30T14:16:45.495Z,12.60
2019-03-30T14:17:58.722Z,14.50
2019-03-30T14:19:11.983Z,14.90
2019-03-30T14:20:25.470Z,13.90
2019-03-30T14:21:38.701Z,14.60
2019-03-30T14:22:51.924Z,14.30
2019-03-30T14:24:05.154Z,15.20
2019-03-30T14:25:18.400Z,14.60
2019-03-30T14:26:31.999Z,14.90
2019-03-30T14:27:45.709Z,13.80
2019-03-30T14:28:58.956Z,12.90
2019-03-30T14:30:12.970Z,14.50
2019-03-30T14:31:26.207Z,13.40
2019-03-30T14:32:40.565Z,12.40
2019-03-30T14:34:00.269Z,12.20
2019-03-30T14:38:26.925Z,13.30
2019-03-30T14:39:40.882Z,12.60
2019-03-30T14:40:54.130Z,11.90
2019-03-30T14:42:08.535Z,12.30
2019-03-30T14:43:21.762Z,12.20
2019-03-30T14:44:35.000Z,11.80
2019-03-30T14:45:48.222Z,11.80
2019-03-30T14:47:02.519Z,11.60
2019-03-30T14:48:15.746Z,11.10
2019-03-30T14:49:28.981Z,11.60
2019-03-30T14:50:42.238Z,11.60
2019-03-30T14:51:55.498Z,11.80
2019-03-30T14:53:08.750Z,12.20
2019-03-30T14:54:22.236Z,12.20
2019-03-30T14:55:35.465Z,12.60
2019-03-30T14:56:48.701Z,12.80
2019-03-30T14:58:01.941Z,13.00
2019-03-30T14:59:15.181Z,13.60
2019-03-30T15:00:28.513Z,13.10
2019-03-30T15:01:41.923Z,12.60
2019-03-30T15:02:55.254Z,13.20
2019-03-30T15:04:08.470Z,13.00
2019-03-30T15:05:21.705Z,12.60
2019-03-30T15:06:34.953Z,13.10
2019-03-30T15:07:48.202Z,13.50
2019-03-30T15:09:01.451Z,13.30
2019-03-30T15:10:14.670Z,13.00
2019-03-30T15:11:27.907Z,13.20
2019-03-30T15:12:41.188Z,12.70
2019-03-30T15:13:54.414Z,13.80
2019-03-30T15:15:09.793Z,13.80
2019-03-30T15:16:23.017Z,14.10
2019-03-30T15:17:36.439Z,14.70
2019-03-30T15:18:49.702Z,14.60
2019-03-30T15:20:02.995Z,14.40
2019-03-30T15:21:16.238Z,14.90
2019-03-30T15:22:29.479Z,15.80
2019-03-30T15:23:42.765Z,15.90
2019-03-30T15:24:56.000Z,16.20
2019-03-30T15:26:09.245Z,16.70
2019-03-30T15:27:22.516Z,16.00
2019-03-30T15:28:35.775Z,15.90
2019-03-30T15:29:49.026Z,15.80
2019-03-30T15:31:02.253Z,16.50
2019-03-30T15:32:15.970Z,16.90
2019-03-30T15:33:29.228Z,17.10
2019-03-30T15:34:43.217Z,17.20
2019-03-30T15:35:57.472Z,17.40
2019-03-30T15:37:13.683Z,18.30
2019-03-30T15:38:26.924Z,18.20
2019-03-30T15:39:40.174Z,18.40
2019-03-30T15:40:55.618Z,17.80
2019-03-30T15:42:08.372Z,17.60
2019-03-30T15:43:21.619Z,17.30
2019-03-30T15:44:34.850Z,17.50
2019-03-30T15:45:48.090Z,16.90
2019-03-30T15:47:01.330Z,17.40
2019-03-30T15:48:15.539Z,17.60
2019-03-30T15:49:28.779Z,17.80
2019-03-30T15:50:42.078Z,17.90